Nearby METAR Reports

 

EGTE - Exeter Airport, United Kingdom
Distance from station: NNE 25km
Updated: 23/09/2021 12:20
Nearby showers, Mostly cloudy
Nearby showers, Mostly cloudy
 Wind from W
Wind: W 8 mph , 13 km/h
Temperature: 19°C
Dew Point: 15°C
Humidity: 78%
Barometer: 1022 hPa
Summary: Nearby Showers
Clouds: Mostly cloudy
Visibility: 6 miles , 10 km
Cloud details: Few Clouds 366 m
Mostly cloudy 610 m
2021/09/23 11:20 EGTE 231120Z 28007KT 9999 VCSH FEW012 BKN020 19/15 Q1022
EGDY - Yeovilton (navy), United Kingdom
Distance from station: NE 83km
Updated: 23/09/2021 12:20
Mostly cloudy
Mostly cloudy
 Wind from W
Wind: W 14 mph , 22 km/h
Temperature: 19°C
Dew Point: 15°C
Humidity: 78%
Barometer: 1021 hPa
Clouds: Mostly cloudy
Visibility: 6 miles , 10 km
Cloud details: Few Clouds 549 m
Mostly cloudy 610 m
2021/09/23 11:20 EGDY 231120Z 26012KT 9999 FEW018 BKN020 19/15 Q1021 NOSIG RMK WHT WHT
 
EGFF - Cardiff-Wales Ar, United Kingdom
Distance from station: N 99km
Updated: 23/09/2021 12:20
Overcast
Overcast
 Wind from W
Wind: W 13 mph , 20 km/h
Temperature: 17°C
Dew Point: 17°C
Humidity: 100%
Barometer: 1021 hPa
Clouds: Overcast
Visibility: 6 miles , 10 km
Cloud details: Mostly cloudy 122 m
Overcast 305 m
2021/09/23 11:20 EGFF 231120Z AUTO 28011KT 9999 BKN004 OVC010 17/17 Q1021 RERA
EGDX - St Athan Raf, United Kingdom
Distance from station: N 100km
Updated: 01/04/2019 13:50
NOT Current
Clear
Clear
 Wind from E
Wind: E 9 mph , 15 km/h
Temperature: 11°C
Dew Point: 5°C
Humidity: 67%
Barometer: 1019 hPa
Clouds: Clear
Visibility: 6 miles , 10 km
2019/04/01 12:50 EGDX 011250Z AUTO 10008KT 9999 NCD 11/05 Q1019
 
EGHQ - Newquay, United Kingdom
Distance from station: W 106km
Updated: 23/09/2021 12:20
Mist, Overcast
Mist, Overcast
 Wind from W
Wind: W 13 mph , 20 km/h
Temperature: 16°C
Dew Point: 16°C
Humidity: 100%
Barometer: 1023 hPa
Summary: Mist
Clouds: Overcast
Visibility: 2 miles , 4 km
Cloud details: Overcast 61 m
2021/09/23 11:20 EGHQ 231120Z 26011KT 3500 BR OVC002 16/16 Q1023 REDZ
EGGD - Bristol/Lulsgate, United Kingdom
Distance from station: NNE 111km
Updated: 23/09/2021 12:20
Overcast
Overcast
 Wind from WSW
Wind: WSW 17 mph , 28 km/h
Temperature: 17°C
Dew Point: 16°C
Humidity: 94%
Barometer: 1021 hPa
Clouds: Overcast
Visibility: 6 miles , 10 km
Cloud details: Overcast 61 m
2021/09/23 11:20 EGGD 231120Z AUTO 25015KT 9999 OVC002 17/16 Q1021
 
EGHH - Bournemouth Airp, United Kingdom
Distance from station: ENE 122km
Updated: 23/09/2021 12:20
Mostly cloudy
Mostly cloudy
 Wind from W
Wind: W 10 mph , 17 km/h
Temperature: 20°C
Dew Point: 14°C
Humidity: 69%
Barometer: 1021 hPa
Clouds: Mostly cloudy
Visibility: 6 miles , 10 km
Cloud details: Mostly cloudy 610 m
2021/09/23 11:20 EGHH 231120Z 27009KT 240V310 9999 BKN020 20/14 Q1021
EGJA - Alderney/Channel, United Kingdom
Distance from station: SE 127km
Updated: 23/09/2021 12:20
Few Clouds
Few Clouds
 Wind from WNW
Wind: WNW 15 mph , 24 km/h
Temperature: 18°C
Dew Point: 12°C
Humidity: 68%
Barometer: 1023 hPa
Clouds: Few Clouds
Visibility: 6 miles , 10 km
Cloud details: Few Clouds 610 m
2021/09/23 11:20 EGJA 231120Z 29013KT 9999 FEW020 18/12 Q1023
 
EGDR - Culdrose (navy), United Kingdom
Distance from station: WSW 133km
Updated: 23/09/2021 12:22
Fog, Overcast
Fog, Overcast
 Wind from WSW
Wind: WSW 13 mph , 20 km/h
Temperature: 16°C
Dew Point: 16°C
Humidity: 100%
Barometer: 1023 hPa
Summary: Fog
Clouds: Overcast
Visibility: 0 mile , 0 km
Cloud details: Partly cloudy 0 m
Mostly cloudy 30 m
Overcast 61 m
2021/09/23 11:22 EGDR 231122Z 25011KT 0300 FG SCT000 BKN001 OVC002 16/16 Q1023 NOSIG RMK RED RED
EGUO - Colerne Raf, United Kingdom
Distance from station: NE 134km
Updated: 14/02/2019 22:50
NOT Current
Clear
Clear
 Wind from ENE
Wind: ENE 1 mph , 2 km/h
Temperature: 1°C
Dew Point: 0°C
Humidity: 93%
Barometer: 1029 hPa
Summary: Clear
Visibility: greater than 7 miles , 10 km
2019/02/14 22:50 EGUO 142250Z 06001KT CAVOK 01/00 Q1029 BLU NOSIG
 
EGJB - Guernsey Airport, United Kingdom
Distance from station: SSE 137km
Updated: 23/09/2021 12:20
Partly cloudy
Partly cloudy
 Wind from WNW
Wind: WNW 12 mph , 19 km/h
Temperature: 17°C
Dew Point: 13°C
Humidity: 77%
Barometer: 1024 hPa
Clouds: Partly cloudy
Visibility: 6 miles , 10 km
Cloud details: Few Clouds 457 m
Partly cloudy 610 m
2021/09/23 11:20 EGJB 231120Z 29010KT 270V340 9999 FEW015 SCT020 17/13 Q1024
EGDM - Boscombe Down, United Kingdom
Distance from station: ENE 144km
Updated: 23/09/2021 11:50
Mostly cloudy
Mostly cloudy
 Wind from W
Wind: W 14 mph , 22 km/h
Temperature: 18°C
Dew Point: 14°C
Humidity: 78%
Barometer: 1021 hPa
Clouds: Mostly cloudy
Visibility: 6 miles , 10 km
Cloud details: Mostly cloudy 396 m
2021/09/23 10:50 EGDM 231050Z 28012KT 9999 BKN013 18/14 Q1021 NOSIG RMK GRN GRN
 
EGOP - Pembry Sands, United Kingdom
Distance from station: NNW 147km
Updated: 23/09/2021 11:50
Mostly cloudy
Mostly cloudy
 Wind from NW
Wind: NW 16 mph , 26 km/h
Temperature: 18°C
Dew Point: 16°C
Humidity: 88%
Barometer: 1021 hPa
Clouds: Mostly cloudy
Visibility: 6 miles , 10 km
Cloud details: Mostly cloudy 366 m
2021/09/23 10:50 EGOP 231050Z 32014KT 9999 BKN012 18/16 Q1021 GRN
EGVP - Middle Wallop, United Kingdom
Distance from station: ENE 153km
Updated: 23/09/2021 12:20
Mostly cloudy
Mostly cloudy
 Wind from W
Wind: W 12 mph , 19 km/h
Temperature: 18°C
Dew Point: 14°C
Humidity: 78%
Barometer: 1021 hPa
Clouds: Mostly cloudy
Visibility: 6 miles , 10 km
Cloud details: Mostly cloudy 427 m
Mostly cloudy 488 m
2021/09/23 11:20 EGVP 231120Z 28010KT 9999 BKN014 BKN016 18/14 Q1021 TEMPO BKN015 RMK GRN TEMPO WHT
 
EGHI - Southampton Wx C, United Kingdom
Distance from station: ENE 159km
Updated: 23/09/2021 12:20
Mostly cloudy
Mostly cloudy
 Wind from W
Wind: W 7 mph , 11 km/h
Temperature: 19°C
Dew Point: 14°C
Humidity: 73%
Barometer: 1021 hPa
Clouds: Mostly cloudy
Visibility: 6 miles , 10 km
Cloud details: Mostly cloudy 610 m
2021/09/23 11:20 EGHI 231120Z 27006KT 230V320 9999 BKN020 19/14 Q1021